SIA32 WSSS-KSFO
Flight info
| Callsign | SIA32 |
|---|---|
| Flight time | N/A |
| Altitude | 35000 |
| Route | TOMAN5B TOMAN L625 AKMON/K0932F350 L625 ANOKI/N0500F360 L625 MEVIN/N0496F370 B462 KAZIK Y59 AZAMA Y57 POROT OTR11 LEPKI/N0480F390 DCT 41N160E 44N170E 45N180E 47N170W/N0495F410 50N160W 52N150W 50N140W 45N130W DCT NATTE DCT AMAKR BDEGA4 |
| Aircraft | A359/H-SDE1E2E3GHIJ1J2J3J5M1P2RWXYZ/LB1D1 |
Departure
| Time | N/A |
|---|---|
| Airport | Singapore Changi Airport (WSSS) |
Arrival
| Time | 2026-05-07 20:01 |
|---|---|
| Airport | San Francisco International Airport (KSFO) |
| Time | Latitude | Longitude | Altitude | Speed | Heading |
|---|---|---|---|---|---|
| 2026-05-07 18:01 | 48.11475 | -135.78839 | 41204 ft | 458 kts | 131° |
| 2026-05-07 18:02 | 48.05861 | -135.67254 | 41208 ft | 459 kts | 131° |
| 2026-05-07 18:03 | 48.02102 | -135.59525 | 41206 ft | 460 kts | 131° |
| 2026-05-07 18:03 | 47.98333 | -135.51797 | 41210 ft | 461 kts | 131° |
| 2026-05-07 18:04 | 47.94578 | -135.44119 | 41209 ft | 461 kts | 131° |
| 2026-05-07 18:04 | 47.90791 | -135.36398 | 41216 ft | 462 kts | 131° |
| 2026-05-07 18:05 | 47.86994 | -135.28677 | 41216 ft | 462 kts | 131° |
| 2026-05-07 18:05 | 47.83184 | -135.20953 | 41217 ft | 463 kts | 131° |
| 2026-05-07 18:06 | 47.79365 | -135.13233 | 41218 ft | 464 kts | 132° |
| 2026-05-07 18:06 | 47.75560 | -135.05562 | 41221 ft | 464 kts | 132° |
| 2026-05-07 18:07 | 47.71722 | -134.97845 | 41227 ft | 465 kts | 132° |
| 2026-05-07 18:07 | 47.67872 | -134.90127 | 41223 ft | 465 kts | 132° |
| 2026-05-07 18:08 | 47.64011 | -134.82410 | 41221 ft | 466 kts | 132° |
| 2026-05-07 18:08 | 47.60144 | -134.74700 | 41223 ft | 466 kts | 132° |
| 2026-05-07 18:09 | 47.56290 | -134.67039 | 41229 ft | 467 kts | 132° |
| 2026-05-07 18:09 | 47.52402 | -134.59333 | 41226 ft | 468 kts | 132° |
| 2026-05-07 18:10 | 47.48503 | -134.51627 | 41227 ft | 468 kts | 133° |
| 2026-05-07 18:10 | 47.44594 | -134.43921 | 41228 ft | 469 kts | 133° |
| 2026-05-07 18:11 | 47.40706 | -134.36277 | 41232 ft | 469 kts | 133° |
| 2026-05-07 18:11 | 47.36775 | -134.28573 | 41231 ft | 470 kts | 133° |
| 2026-05-07 18:12 | 47.32841 | -134.20883 | 41233 ft | 470 kts | 133° |
| 2026-05-07 18:12 | 47.28893 | -134.13189 | 41237 ft | 471 kts | 133° |
| 2026-05-07 18:13 | 47.24965 | -134.05553 | 41238 ft | 471 kts | 133° |
| 2026-05-07 18:13 | 47.20998 | -133.97863 | 41233 ft | 472 kts | 133° |
| 2026-05-07 18:14 | 47.17020 | -133.90173 | 41235 ft | 473 kts | 133° |
| 2026-05-07 18:14 | 47.13034 | -133.82491 | 41238 ft | 473 kts | 133° |
| 2026-05-07 18:15 | 47.09038 | -133.74810 | 41236 ft | 474 kts | 133° |
| 2026-05-07 18:15 | 47.05059 | -133.67183 | 41237 ft | 474 kts | 133° |
| 2026-05-07 18:16 | 47.01044 | -133.59508 | 41238 ft | 474 kts | 133° |
| 2026-05-07 18:16 | 46.97023 | -133.51841 | 41249 ft | 475 kts | 133° |
| 2026-05-07 18:17 | 46.92990 | -133.44176 | 41241 ft | 476 kts | 134° |
| 2026-05-07 18:17 | 46.88973 | -133.36561 | 41243 ft | 476 kts | 134° |
| 2026-05-07 18:18 | 46.84921 | -133.28901 | 41241 ft | 477 kts | 134° |
| 2026-05-07 18:18 | 46.80859 | -133.21243 | 41242 ft | 477 kts | 134° |
| 2026-05-07 18:19 | 46.76791 | -133.13594 | 41245 ft | 477 kts | 134° |
| 2026-05-07 18:19 | 46.72743 | -133.06005 | 41241 ft | 478 kts | 134° |
| 2026-05-07 18:20 | 46.68659 | -132.98369 | 41243 ft | 478 kts | 134° |
| 2026-05-07 18:20 | 46.64568 | -132.90740 | 41243 ft | 478 kts | 134° |
| 2026-05-07 18:21 | 46.60492 | -132.83161 | 41241 ft | 479 kts | 134° |
| 2026-05-07 18:21 | 46.56385 | -132.75546 | 41244 ft | 479 kts | 134° |
| 2026-05-07 18:22 | 46.52263 | -132.67922 | 41244 ft | 480 kts | 134° |
| 2026-05-07 18:22 | 46.48136 | -132.60311 | 41242 ft | 480 kts | 134° |
| 2026-05-07 18:23 | 46.43996 | -132.52696 | 41243 ft | 481 kts | 134° |
| 2026-05-07 18:23 | 46.39878 | -132.45144 | 41246 ft | 481 kts | 134° |
| 2026-05-07 18:24 | 46.35726 | -132.37548 | 41242 ft | 481 kts | 134° |
| 2026-05-07 18:24 | 46.31562 | -132.29952 | 41254 ft | 482 kts | 134° |
| 2026-05-07 18:25 | 46.27391 | -132.22363 | 41240 ft | 482 kts | 134° |
| 2026-05-07 18:25 | 46.23238 | -132.14829 | 41245 ft | 483 kts | 134° |
| 2026-05-07 18:26 | 46.19049 | -132.07250 | 41246 ft | 483 kts | 134° |
| 2026-05-07 18:26 | 46.14851 | -131.99675 | 41248 ft | 484 kts | 134° |
| 2026-05-07 18:27 | 46.10642 | -131.92102 | 41248 ft | 484 kts | 134° |
| 2026-05-07 18:27 | 46.06457 | -131.84590 | 41247 ft | 484 kts | 134° |
| 2026-05-07 18:28 | 46.02235 | -131.77034 | 41245 ft | 485 kts | 135° |
| 2026-05-07 18:28 | 45.98002 | -131.69477 | 41247 ft | 485 kts | 135° |
| 2026-05-07 18:29 | 45.93766 | -131.61937 | 41247 ft | 485 kts | 135° |
| 2026-05-07 18:29 | 45.89548 | -131.54447 | 41248 ft | 485 kts | 135° |
| 2026-05-07 18:30 | 45.85294 | -131.46914 | 41252 ft | 486 kts | 135° |
| 2026-05-07 18:30 | 45.81034 | -131.39391 | 41246 ft | 486 kts | 135° |
| 2026-05-07 18:31 | 45.76767 | -131.31874 | 41248 ft | 487 kts | 135° |
| 2026-05-07 18:31 | 45.72518 | -131.24412 | 41247 ft | 487 kts | 135° |
| 2026-05-07 18:32 | 45.68231 | -131.16903 | 41249 ft | 487 kts | 135° |
| 2026-05-07 18:32 | 45.63938 | -131.09402 | 41250 ft | 488 kts | 135° |
| 2026-05-07 18:33 | 45.59636 | -131.01906 | 41250 ft | 488 kts | 135° |
| 2026-05-07 18:33 | 45.55325 | -130.94414 | 41251 ft | 488 kts | 135° |
| 2026-05-07 18:34 | 45.51033 | -130.86976 | 41247 ft | 489 kts | 135° |
| 2026-05-07 18:34 | 45.46706 | -130.79496 | 41250 ft | 489 kts | 135° |
| 2026-05-07 18:35 | 45.42364 | -130.72012 | 41249 ft | 490 kts | 135° |
| 2026-05-07 18:35 | 45.38016 | -130.64535 | 41254 ft | 491 kts | 135° |
| 2026-05-07 18:36 | 45.34395 | -130.58324 | 41247 ft | 491 kts | 135° |
| 2026-05-07 18:36 | 45.29324 | -130.49650 | 41253 ft | 491 kts | 135° |
| 2026-05-07 18:37 | 45.24952 | -130.42192 | 41247 ft | 491 kts | 135° |
| 2026-05-07 18:37 | 45.20574 | -130.34743 | 41246 ft | 492 kts | 135° |
| 2026-05-07 18:38 | 45.16927 | -130.28555 | 41252 ft | 492 kts | 135° |
| 2026-05-07 18:38 | 45.11790 | -130.19860 | 41248 ft | 492 kts | 135° |
| 2026-05-07 18:39 | 45.07422 | -130.12487 | 41251 ft | 493 kts | 135° |
| 2026-05-07 18:39 | 45.03759 | -130.06319 | 41247 ft | 493 kts | 135° |
| 2026-05-07 18:40 | 44.99125 | -129.99235 | 41248 ft | 487 kts | 145° |
| 2026-05-07 18:40 | 44.93884 | -129.93231 | 41249 ft | 485 kts | 147° |
| 2026-05-07 18:41 | 44.87668 | -129.86497 | 41251 ft | 485 kts | 147° |
| 2026-05-07 18:41 | 44.82306 | -129.80721 | 41254 ft | 485 kts | 147° |
| 2026-05-07 18:42 | 44.77849 | -129.75907 | 41249 ft | 486 kts | 147° |
| 2026-05-07 18:42 | 44.72490 | -129.70113 | 41254 ft | 486 kts | 147° |
| 2026-05-07 18:43 | 44.66258 | -129.63389 | 41244 ft | 486 kts | 147° |
| 2026-05-07 18:43 | 44.61756 | -129.58545 | 41246 ft | 486 kts | 147° |
| 2026-05-07 18:44 | 44.56421 | -129.52817 | 41250 ft | 486 kts | 147° |
| 2026-05-07 18:44 | 44.51043 | -129.47056 | 41246 ft | 487 kts | 147° |
| 2026-05-07 18:45 | 44.45662 | -129.41307 | 41245 ft | 487 kts | 147° |
| 2026-05-07 18:45 | 44.40277 | -129.35566 | 41252 ft | 487 kts | 147° |
| 2026-05-07 18:46 | 44.34917 | -129.29867 | 41251 ft | 487 kts | 147° |
| 2026-05-07 18:46 | 44.29527 | -129.24148 | 41247 ft | 487 kts | 147° |
| 2026-05-07 18:47 | 44.24127 | -129.18432 | 41249 ft | 487 kts | 147° |
| 2026-05-07 18:47 | 44.18723 | -129.12726 | 41249 ft | 487 kts | 147° |
| 2026-05-07 18:48 | 44.13317 | -129.07031 | 41247 ft | 487 kts | 147° |
| 2026-05-07 18:48 | 44.07944 | -129.01384 | 41250 ft | 487 kts | 147° |
| 2026-05-07 18:49 | 44.02534 | -128.95711 | 41248 ft | 487 kts | 147° |
| 2026-05-07 18:49 | 43.97117 | -128.90045 | 41247 ft | 488 kts | 147° |
| 2026-05-07 18:50 | 43.91697 | -128.84388 | 41248 ft | 488 kts | 147° |
| 2026-05-07 18:50 | 43.86305 | -128.78775 | 41249 ft | 488 kts | 147° |
| 2026-05-07 18:51 | 43.80879 | -128.73138 | 41247 ft | 488 kts | 147° |
| 2026-05-07 18:51 | 43.75444 | -128.67505 | 41243 ft | 488 kts | 147° |
| 2026-05-07 18:52 | 43.70008 | -128.61885 | 41249 ft | 488 kts | 147° |
| 2026-05-07 18:52 | 43.64566 | -128.56271 | 41247 ft | 488 kts | 147° |
| 2026-05-07 18:53 | 43.59158 | -128.50706 | 41248 ft | 488 kts | 147° |
| 2026-05-07 18:53 | 43.53706 | -128.45108 | 41242 ft | 488 kts | 147° |
| 2026-05-07 18:54 | 43.48257 | -128.39525 | 41246 ft | 489 kts | 147° |
| 2026-05-07 18:54 | 43.42833 | -128.33981 | 41239 ft | 489 kts | 147° |
| 2026-05-07 18:55 | 43.37373 | -128.28413 | 41248 ft | 489 kts | 147° |
| 2026-05-07 18:55 | 43.31909 | -128.22854 | 41244 ft | 489 kts | 147° |
| 2026-05-07 18:56 | 43.26438 | -128.17300 | 41242 ft | 489 kts | 147° |
| 2026-05-07 18:56 | 43.20960 | -128.11753 | 41242 ft | 489 kts | 147° |
| 2026-05-07 18:57 | 43.15517 | -128.06252 | 41244 ft | 490 kts | 146° |
| 2026-05-07 18:57 | 43.10033 | -128.00724 | 41243 ft | 490 kts | 146° |
| 2026-05-07 18:58 | 43.04541 | -127.95199 | 41243 ft | 490 kts | 147° |
| 2026-05-07 18:58 | 42.99043 | -127.89682 | 41241 ft | 490 kts | 146° |
| 2026-05-07 18:59 | 42.93547 | -127.84179 | 41240 ft | 490 kts | 146° |
| 2026-05-07 18:59 | 42.88074 | -127.78711 | 41234 ft | 491 kts | 146° |
| 2026-05-07 19:00 | 42.82564 | -127.73219 | 41242 ft | 491 kts | 146° |
| 2026-05-07 19:00 | 42.77043 | -127.67728 | 41236 ft | 491 kts | 146° |
| 2026-05-07 19:01 | 42.71561 | -127.62287 | 41238 ft | 491 kts | 146° |
| 2026-05-07 19:01 | 42.66034 | -127.56815 | 41240 ft | 491 kts | 146° |
| 2026-05-07 19:02 | 42.60502 | -127.51351 | 41235 ft | 491 kts | 146° |
| 2026-05-07 19:02 | 42.54974 | -127.45902 | 41239 ft | 491 kts | 146° |
| 2026-05-07 19:03 | 42.49438 | -127.40457 | 41237 ft | 492 kts | 146° |
| 2026-05-07 19:03 | 42.43902 | -127.35025 | 41235 ft | 492 kts | 146° |
| 2026-05-07 19:04 | 42.38396 | -127.29635 | 41235 ft | 491 kts | 146° |
| 2026-05-07 19:04 | 42.32857 | -127.24223 | 41238 ft | 492 kts | 146° |
| 2026-05-07 19:05 | 42.27308 | -127.18815 | 41234 ft | 492 kts | 146° |
| 2026-05-07 19:05 | 42.21761 | -127.13420 | 41236 ft | 491 kts | 146° |
| 2026-05-07 19:06 | 42.16255 | -127.08077 | 41236 ft | 491 kts | 146° |
| 2026-05-07 19:06 | 42.07923 | -127.00013 | 41231 ft | 491 kts | 146° |
| 2026-05-07 19:07 | 42.02369 | -126.94653 | 41229 ft | 491 kts | 146° |
| 2026-05-07 19:07 | 41.96811 | -126.89300 | 41230 ft | 491 kts | 146° |
| 2026-05-07 19:08 | 41.91290 | -126.83996 | 41230 ft | 492 kts | 146° |
| 2026-05-07 19:08 | 41.85794 | -126.78535 | 41227 ft | 492 kts | 142° |
| 2026-05-07 19:09 | 41.80575 | -126.72568 | 41222 ft | 493 kts | 140° |
| 2026-05-07 19:09 | 41.75391 | -126.66557 | 41224 ft | 493 kts | 140° |
| 2026-05-07 19:10 | 41.70193 | -126.60672 | 41225 ft | 493 kts | 141° |
| 2026-05-07 19:10 | 41.64932 | -126.54803 | 41226 ft | 493 kts | 141° |
| 2026-05-07 19:11 | 41.59655 | -126.48945 | 41220 ft | 493 kts | 141° |
| 2026-05-07 19:11 | 41.54379 | -126.43096 | 41223 ft | 493 kts | 141° |
| 2026-05-07 19:12 | 41.49136 | -126.37293 | 41218 ft | 493 kts | 141° |
| 2026-05-07 19:12 | 41.43857 | -126.31460 | 41220 ft | 493 kts | 141° |
| 2026-05-07 19:13 | 41.38574 | -126.25636 | 41216 ft | 493 kts | 141° |
| 2026-05-07 19:13 | 41.33293 | -126.19827 | 41219 ft | 493 kts | 141° |
| 2026-05-07 19:14 | 41.28004 | -126.14022 | 41217 ft | 493 kts | 141° |
| 2026-05-07 19:14 | 41.22721 | -126.08236 | 41215 ft | 492 kts | 141° |
| 2026-05-07 19:15 | 41.17466 | -126.02494 | 41212 ft | 492 kts | 141° |
| 2026-05-07 19:15 | 41.12177 | -125.96727 | 41212 ft | 492 kts | 141° |
| 2026-05-07 19:16 | 41.06891 | -125.90974 | 41212 ft | 492 kts | 141° |
| 2026-05-07 19:16 | 41.01600 | -125.85229 | 41210 ft | 491 kts | 141° |
| 2026-05-07 19:17 | 40.96345 | -125.79536 | 41210 ft | 491 kts | 141° |
| 2026-05-07 19:17 | 40.91053 | -125.73815 | 41207 ft | 491 kts | 141° |
| 2026-05-07 19:18 | 40.85763 | -125.68107 | 41207 ft | 491 kts | 141° |
| 2026-05-07 19:18 | 40.80502 | -125.62443 | 41211 ft | 491 kts | 141° |
| 2026-05-07 19:19 | 40.75210 | -125.56758 | 41207 ft | 491 kts | 141° |
| 2026-05-07 19:19 | 40.69915 | -125.51081 | 41207 ft | 490 kts | 141° |
| 2026-05-07 19:20 | 40.64621 | -125.45418 | 41204 ft | 491 kts | 141° |
| 2026-05-07 19:20 | 40.59318 | -125.39758 | 41204 ft | 490 kts | 141° |
| 2026-05-07 19:21 | 40.54052 | -125.34148 | 41202 ft | 490 kts | 141° |
| 2026-05-07 19:21 | 40.48753 | -125.28514 | 41203 ft | 490 kts | 141° |
| 2026-05-07 19:22 | 40.43445 | -125.22884 | 41203 ft | 490 kts | 141° |
| 2026-05-07 19:22 | 40.38139 | -125.17267 | 41204 ft | 490 kts | 141° |
| 2026-05-07 19:23 | 40.32865 | -125.11696 | 41204 ft | 490 kts | 141° |
| 2026-05-07 19:23 | 40.27557 | -125.06101 | 41203 ft | 490 kts | 141° |
| 2026-05-07 19:24 | 40.22250 | -125.00518 | 41202 ft | 490 kts | 141° |
| 2026-05-07 19:24 | 40.16937 | -124.94940 | 41205 ft | 490 kts | 142° |
| 2026-05-07 19:25 | 40.11621 | -124.89371 | 41203 ft | 490 kts | 142° |
| 2026-05-07 19:25 | 40.06337 | -124.83847 | 41203 ft | 490 kts | 142° |
| 2026-05-07 19:26 | 40.01017 | -124.78296 | 41198 ft | 490 kts | 142° |
| 2026-05-07 19:26 | 39.95696 | -124.72756 | 41202 ft | 490 kts | 142° |
| 2026-05-07 19:27 | 39.90405 | -124.67259 | 41200 ft | 490 kts | 142° |
| 2026-05-07 19:27 | 39.85075 | -124.61731 | 41196 ft | 490 kts | 142° |
| 2026-05-07 19:28 | 39.79741 | -124.56212 | 41197 ft | 490 kts | 142° |
| 2026-05-07 19:28 | 39.74414 | -124.50709 | 41198 ft | 490 kts | 142° |
| 2026-05-07 19:29 | 39.69109 | -124.45242 | 41199 ft | 490 kts | 142° |
| 2026-05-07 19:29 | 39.63770 | -124.39751 | 41196 ft | 489 kts | 142° |
| 2026-05-07 19:30 | 39.58433 | -124.34271 | 41198 ft | 489 kts | 142° |
| 2026-05-07 19:30 | 39.53103 | -124.28812 | 41195 ft | 489 kts | 142° |
| 2026-05-07 19:31 | 39.47796 | -124.23388 | 41194 ft | 489 kts | 142° |
| 2026-05-07 19:31 | 39.42464 | -124.17947 | 41196 ft | 488 kts | 142° |
| 2026-05-07 19:32 | 39.37127 | -124.12512 | 41192 ft | 488 kts | 142° |
| 2026-05-07 19:32 | 39.31790 | -124.07089 | 41184 ft | 488 kts | 142° |
| 2026-05-07 19:33 | 39.26458 | -124.01681 | 41181 ft | 488 kts | 142° |
| 2026-05-07 19:33 | 39.21156 | -123.96314 | 41177 ft | 487 kts | 142° |
| 2026-05-07 19:34 | 39.15817 | -123.90921 | 41177 ft | 487 kts | 142° |
| 2026-05-07 19:34 | 39.10483 | -123.85544 | 41174 ft | 487 kts | 142° |
| 2026-05-07 19:35 | 39.05142 | -123.80170 | 41135 ft | 487 kts | 143° |
| 2026-05-07 19:35 | 39.02479 | -123.77493 | 40890 ft | 486 kts | 143° |
| 2026-05-07 19:35 | 38.99845 | -123.74850 | 40642 ft | 486 kts | 143° |
| 2026-05-07 19:36 | 38.97178 | -123.72177 | 40409 ft | 487 kts | 143° |
| 2026-05-07 19:36 | 38.94509 | -123.69489 | 40202 ft | 487 kts | 142° |
| 2026-05-07 19:36 | 38.91879 | -123.66752 | 39967 ft | 487 kts | 141° |
| 2026-05-07 19:36 | 38.89312 | -123.63907 | 39734 ft | 487 kts | 140° |
| 2026-05-07 19:37 | 38.86765 | -123.61046 | 39538 ft | 487 kts | 140° |
| 2026-05-07 19:37 | 38.84208 | -123.58190 | 39317 ft | 487 kts | 140° |
| 2026-05-07 19:37 | 38.81649 | -123.55347 | 39107 ft | 487 kts | 140° |
| 2026-05-07 19:37 | 38.79086 | -123.52510 | 38894 ft | 487 kts | 140° |
| 2026-05-07 19:38 | 38.76555 | -123.49715 | 38660 ft | 487 kts | 140° |
| 2026-05-07 19:38 | 38.73986 | -123.46882 | 38401 ft | 487 kts | 140° |
| 2026-05-07 19:38 | 38.71420 | -123.44057 | 38151 ft | 487 kts | 140° |
| 2026-05-07 19:38 | 38.68848 | -123.41229 | 37898 ft | 488 kts | 140° |
| 2026-05-07 19:39 | 38.66270 | -123.38398 | 37659 ft | 489 kts | 140° |
| 2026-05-07 19:39 | 38.63684 | -123.35560 | 37422 ft | 489 kts | 140° |
| 2026-05-07 19:39 | 38.61101 | -123.32729 | 37180 ft | 490 kts | 140° |
| 2026-05-07 19:39 | 38.58508 | -123.29890 | 36955 ft | 491 kts | 140° |
| 2026-05-07 19:40 | 38.55948 | -123.27089 | 36722 ft | 491 kts | 140° |
| 2026-05-07 19:40 | 38.53348 | -123.24249 | 36492 ft | 492 kts | 140° |
| 2026-05-07 19:40 | 38.50745 | -123.21407 | 36267 ft | 493 kts | 140° |
| 2026-05-07 19:40 | 38.48133 | -123.18558 | 36040 ft | 494 kts | 140° |
| 2026-05-07 19:41 | 38.45522 | -123.15713 | 35818 ft | 495 kts | 140° |
| 2026-05-07 19:41 | 38.42903 | -123.12862 | 35607 ft | 495 kts | 140° |
| 2026-05-07 19:41 | 38.40280 | -123.10011 | 35377 ft | 496 kts | 140° |
| 2026-05-07 19:41 | 38.37659 | -123.07163 | 34967 ft | 494 kts | 140° |
| 2026-05-07 19:42 | 38.35037 | -123.04318 | 34067 ft | 497 kts | 140° |
| 2026-05-07 19:42 | 38.32422 | -123.01483 | 33027 ft | 502 kts | 140° |
| 2026-05-07 19:42 | 38.29758 | -122.98599 | 31986 ft | 506 kts | 140° |
| 2026-05-07 19:42 | 38.27065 | -122.95686 | 30951 ft | 509 kts | 140° |
| 2026-05-07 19:43 | 38.24356 | -122.92758 | 29913 ft | 512 kts | 140° |
| 2026-05-07 19:43 | 38.21640 | -122.89824 | 28875 ft | 513 kts | 140° |
| 2026-05-07 19:43 | 38.18924 | -122.86893 | 27988 ft | 510 kts | 140° |
| 2026-05-07 19:43 | 38.16230 | -122.83989 | 27171 ft | 506 kts | 140° |
| 2026-05-07 19:44 | 38.13557 | -122.81111 | 26416 ft | 502 kts | 140° |
| 2026-05-07 19:44 | 38.10909 | -122.78263 | 25695 ft | 497 kts | 140° |
| 2026-05-07 19:44 | 38.08319 | -122.75481 | 25051 ft | 491 kts | 140° |
| 2026-05-07 19:44 | 38.05724 | -122.72695 | 24395 ft | 485 kts | 140° |
| 2026-05-07 19:45 | 38.03166 | -122.69951 | 23748 ft | 480 kts | 140° |
| 2026-05-07 19:45 | 38.00647 | -122.67253 | 22935 ft | 475 kts | 140° |
| 2026-05-07 19:45 | 37.98128 | -122.64555 | 22144 ft | 471 kts | 140° |
| 2026-05-07 19:45 | 37.95638 | -122.61893 | 21373 ft | 466 kts | 140° |
| 2026-05-07 19:46 | 37.93173 | -122.59259 | 20627 ft | 461 kts | 140° |
| 2026-05-07 19:46 | 37.90735 | -122.56656 | 19931 ft | 456 kts | 140° |
| 2026-05-07 19:46 | 37.88380 | -122.54144 | 18880 ft | 432 kts | 140° |
| 2026-05-07 19:46 | 37.86134 | -122.51749 | 17293 ft | 426 kts | 140° |
| 2026-05-07 19:47 | 37.83918 | -122.49386 | 16490 ft | 407 kts | 141° |
| 2026-05-07 19:47 | 37.81776 | -122.47106 | 15933 ft | 401 kts | 141° |
| 2026-05-07 19:47 | 37.79652 | -122.44847 | 15324 ft | 397 kts | 141° |
| 2026-05-07 19:47 | 37.77542 | -122.42605 | 14696 ft | 394 kts | 141° |
| 2026-05-07 19:48 | 37.75451 | -122.40388 | 14084 ft | 391 kts | 141° |
| 2026-05-07 19:48 | 37.73376 | -122.38189 | 13402 ft | 388 kts | 141° |
| 2026-05-07 19:48 | 37.71331 | -122.35987 | 12773 ft | 384 kts | 139° |
| 2026-05-07 19:48 | 37.69662 | -122.33482 | 12163 ft | 362 kts | 123° |
| 2026-05-07 19:49 | 37.68494 | -122.30829 | 11599 ft | 339 kts | 118° |
| 2026-05-07 19:49 | 37.67461 | -122.28246 | 11016 ft | 321 kts | 118° |
| 2026-05-07 19:49 | 37.66491 | -122.25784 | 10443 ft | 307 kts | 118° |
| 2026-05-07 19:49 | 37.65557 | -122.23399 | 9876 ft | 300 kts | 118° |
| 2026-05-07 19:50 | 37.64642 | -122.21055 | 9257 ft | 293 kts | 118° |
| 2026-05-07 19:50 | 37.63760 | -122.18788 | 8649 ft | 283 kts | 118° |
| 2026-05-07 19:50 | 37.62905 | -122.16586 | 8054 ft | 275 kts | 118° |
| 2026-05-07 19:50 | 37.62072 | -122.14442 | 7473 ft | 269 kts | 118° |
| 2026-05-07 19:51 | 37.61257 | -122.12344 | 6907 ft | 264 kts | 118° |
| 2026-05-07 19:51 | 37.60466 | -122.10314 | 6323 ft | 260 kts | 118° |
| 2026-05-07 19:51 | 37.59670 | -122.08287 | 5741 ft | 256 kts | 118° |
| 2026-05-07 19:51 | 37.58878 | -122.06290 | 5156 ft | 253 kts | 118° |
| 2026-05-07 19:52 | 37.58084 | -122.04316 | 4573 ft | 251 kts | 118° |
| 2026-05-07 19:52 | 37.57287 | -122.02374 | 3984 ft | 248 kts | 119° |
| 2026-05-07 19:52 | 37.56174 | -122.00768 | 3418 ft | 242 kts | 147° |
| 2026-05-07 19:52 | 37.54626 | -122.00106 | 3058 ft | 234 kts | 178° |
| 2026-05-07 19:53 | 37.53107 | -122.00549 | 2978 ft | 219 kts | 210° |
| 2026-05-07 19:53 | 37.51946 | -122.01679 | 2973 ft | 204 kts | 223° |
| 2026-05-07 19:53 | 37.50963 | -122.02884 | 3021 ft | 197 kts | 225° |
| 2026-05-07 19:53 | 37.50168 | -122.04317 | 3005 ft | 208 kts | 244° |
| 2026-05-07 19:54 | 37.49954 | -122.06086 | 2993 ft | 207 kts | 279° |
| 2026-05-07 19:54 | 37.50414 | -122.07789 | 2991 ft | 206 kts | 294° |
| 2026-05-07 19:54 | 37.51122 | -122.09328 | 2982 ft | 196 kts | 304° |
| 2026-05-07 19:54 | 37.51965 | -122.10581 | 2984 ft | 180 kts | 314° |
| 2026-05-07 19:55 | 37.52812 | -122.11690 | 2978 ft | 174 kts | 304° |
| 2026-05-07 19:55 | 37.53385 | -122.13005 | 2974 ft | 166 kts | 292° |
| 2026-05-07 19:55 | 37.53761 | -122.14300 | 2866 ft | 155 kts | 288° |
| 2026-05-07 19:55 | 37.54077 | -122.15581 | 2881 ft | 151 kts | 285° |
| 2026-05-07 19:56 | 37.54357 | -122.16825 | 2913 ft | 146 kts | 286° |
| 2026-05-07 19:56 | 37.54659 | -122.18035 | 2904 ft | 145 kts | 288° |
| 2026-05-07 19:56 | 37.55024 | -122.19211 | 2812 ft | 142 kts | 293° |
| 2026-05-07 19:56 | 37.55439 | -122.20338 | 2702 ft | 141 kts | 295° |
| 2026-05-07 19:57 | 37.55867 | -122.21461 | 2513 ft | 143 kts | 294° |
| 2026-05-07 19:57 | 37.56264 | -122.22592 | 2312 ft | 140 kts | 291° |
| 2026-05-07 19:57 | 37.56608 | -122.23719 | 2156 ft | 136 kts | 288° |
| 2026-05-07 19:57 | 37.56902 | -122.24834 | 1973 ft | 135 kts | 288° |
| 2026-05-07 19:58 | 37.57238 | -122.25920 | 1782 ft | 132 kts | 296° |
| 2026-05-07 19:58 | 37.57660 | -122.26954 | 1550 ft | 132 kts | 298° |
| 2026-05-07 19:58 | 37.58092 | -122.27974 | 1291 ft | 132 kts | 296° |
| 2026-05-07 19:58 | 37.58519 | -122.29000 | 1032 ft | 132 kts | 297° |
| 2026-05-07 19:59 | 37.58946 | -122.30009 | 791 ft | 130 kts | 297° |
| 2026-05-07 19:59 | 37.59355 | -122.31028 | 699 ft | 132 kts | 298° |
| 2026-05-07 19:59 | 37.59780 | -122.32041 | 574 ft | 129 kts | 300° |
| 2026-05-07 19:59 | 37.60213 | -122.33012 | 402 ft | 127 kts | 300° |
| 2026-05-07 20:00 | 37.60622 | -122.33983 | 291 ft | 128 kts | 298° |
| 2026-05-07 20:00 | 37.61042 | -122.34985 | 171 ft | 130 kts | 300° |
| 2026-05-07 20:00 | 37.61468 | -122.35990 | 49 ft | 129 kts | 300° |
| 2026-05-07 20:00 | 37.61865 | -122.36939 | 28 ft | 111 kts | 297° |
| 2026-05-07 20:01 | 37.62117 | -122.37536 | 27 ft | 36 kts | 298° |
| 2026-05-07 20:01 | 37.62199 | -122.37733 | 27 ft | 12 kts | 294° |
| 2026-05-07 20:01 | 37.62222 | -122.37840 | 27 ft | 14 kts | 279° |
| 2026-05-07 20:01 | 37.62229 | -122.37972 | 27 ft | 14 kts | 270° |
| 2026-05-07 20:02 | 37.62229 | -122.38066 | 27 ft | 12 kts | 269° |
| 2026-05-07 20:02 | 37.62228 | -122.38176 | 27 ft | 14 kts | 261° |
| 2026-05-07 20:02 | 37.62179 | -122.38292 | 27 ft | 16 kts | 223° |
| 2026-05-07 20:02 | 37.62091 | -122.38310 | 27 ft | 13 kts | 143° |
| 2026-05-07 20:03 | 37.62038 | -122.38197 | 27 ft | 17 kts | 117° |
| 2026-05-07 20:03 | 37.61980 | -122.38058 | 27 ft | 19 kts | 117° |
| 2026-05-07 20:03 | 37.61922 | -122.37959 | 27 ft | 14 kts | 135° |
| 2026-05-07 20:03 | 37.61844 | -122.37890 | 27 ft | 13 kts | 154° |
| 2026-05-07 20:04 | 37.61754 | -122.37862 | 27 ft | 15 kts | 176° |
| 2026-05-07 20:04 | 37.61641 | -122.37888 | 27 ft | 18 kts | 202° |
| 2026-05-07 20:04 | 37.61518 | -122.37968 | 27 ft | 21 kts | 208° |
| 2026-05-07 20:04 | 37.61382 | -122.38058 | 27 ft | 23 kts | 207° |
| 2026-05-07 20:05 | 37.61246 | -122.38147 | 27 ft | 22 kts | 208° |
| 2026-05-07 20:05 | 37.61112 | -122.38236 | 27 ft | 21 kts | 207° |
| 2026-05-07 20:05 | 37.60992 | -122.38314 | 27 ft | 15 kts | 208° |
| 2026-05-07 20:05 | 37.60900 | -122.38375 | 27 ft | 13 kts | 207° |
| 2026-05-07 20:06 | 37.60871 | -122.38467 | 27 ft | 13 kts | 272° |
| 2026-05-07 20:06 | 37.60883 | -122.38553 | 27 ft | 0 kts | 287° |
| 2026-05-07 20:07 | 37.60892 | -122.38578 | 27 ft | 7 kts | 294° |
| 2026-05-07 20:07 | 37.60919 | -122.38647 | 27 ft | 10 kts | 298° |
| 2026-05-07 20:07 | 37.60958 | -122.38738 | 27 ft | 13 kts | 298° |
| 2026-05-07 20:07 | 37.61010 | -122.38848 | 27 ft | 16 kts | 310° |
| 2026-05-07 20:08 | 37.61095 | -122.38859 | 27 ft | 13 kts | 23° |
| 2026-05-07 20:08 | 37.61164 | -122.38816 | 27 ft | 8 kts | 26° |
| 2026-05-07 20:08 | 37.61211 | -122.38785 | 27 ft | 7 kts | 27° |
| 2026-05-07 20:08 | 37.61239 | -122.38766 | 27 ft | 5 kts | 28° |
| 2026-05-07 20:09 | 37.61279 | -122.38740 | 27 ft | 7 kts | 28° |
| 2026-05-07 20:09 | 37.61306 | -122.38739 | 27 ft | 3 kts | 339° |
| 2026-05-07 20:09 | 37.61329 | -122.38768 | 27 ft | 5 kts | 306° |
| 2026-05-07 20:10 | 37.61346 | -122.38804 | 27 ft | 1 kts | 299° |
| 2026-05-07 20:10 | 37.61350 | -122.38813 | 27 ft | 0 kts | 299° |